Time;durP1;ratioP1;P1;durP2;ratioP2;P2;SDS_P1;SDS_P2;PMS_P1;PMS_P2;Temp;Humidity;BMP_temperature;BMP_pressure;BME280_temperature;BME280_humidity;BME280_pressure;Samples;Min_cycle;Max_cycle;Signal;HPM_P1;HPM_P2
2021/06/28 00:02:24;;;;;;;4.10;2.67;;;;;;;21.44;61.36;101354.22;5031610;28;20207;-66
2021/06/28 00:04:49;;;;;;;4.07;2.97;;;;;;;21.40;61.58;101351.59;5030853;28;20173;-66
2021/06/28 00:07:15;;;;;;;4.77;2.70;;;;;;;21.41;61.70;101356.00;5024361;28;20326;-66
2021/06/28 00:09:40;;;;;;;4.43;2.50;;;;;;;21.22;61.29;101320.84;5050633;28;20225;-65
2021/06/28 00:12:06;;;;;;;8.83;3.20;;;;;;;21.36;60.30;101353.88;5050079;28;20538;-66
2021/06/28 00:14:32;;;;;;;5.67;2.70;;;;;;;21.15;59.24;101303.53;5050481;28;20171;-66
2021/06/28 00:16:57;;;;;;;4.93;3.10;;;;;;;21.37;60.25;101351.81;5033669;28;20275;-66
2021/06/28 00:19:23;;;;;;;9.13;3.23;;;;;;;21.25;60.44;101342.41;5050067;28;20234;-66
2021/06/28 00:21:48;;;;;;;5.70;3.10;;;;;;;21.33;60.56;101360.47;5050082;28;20219;-66
2021/06/28 00:24:13;;;;;;;4.53;3.00;;;;;;;21.37;60.18;101360.25;5051352;28;20183;-66
2021/06/28 00:26:39;;;;;;;8.97;3.60;;;;;;;21.35;60.65;101352.28;5051500;28;20180;-66
2021/06/28 00:29:05;;;;;;;9.17;3.63;;;;;;;21.11;60.99;101331.94;5051403;28;20172;-66
2021/06/28 00:31:30;;;;;;;6.63;3.10;;;;;;;21.30;59.69;101364.28;5032966;28;20196;-66
2021/06/28 00:33:56;;;;;;;8.80;3.57;;;;;;;21.34;59.54;101362.00;5033538;28;20183;-66
2021/06/28 00:36:22;;;;;;;8.20;3.40;;;;;;;21.24;59.63;101343.66;5051433;28;20188;-66
2021/06/28 00:38:47;;;;;;;7.10;2.90;;;;;;;21.30;58.85;101369.13;5049958;28;20196;-66
2021/06/28 00:41:13;;;;;;;4.40;3.13;;;;;;;21.18;58.49;101342.03;5049582;28;20199;-66
2021/06/28 00:43:38;;;;;;;6.87;2.80;;;;;;;21.03;58.53;101327.94;5049754;28;20207;-66
2021/06/28 00:46:04;;;;;;;5.77;2.90;;;;;;;21.32;58.82;101367.38;5049906;28;20168;-66
2021/06/28 00:48:29;;;;;;;4.80;2.80;;;;;;;21.36;58.46;101364.34;5051112;28;20172;-66
2021/06/28 00:50:56;;;;;;;6.43;3.27;;;;;;;21.37;58.43;101366.69;5050723;28;20168;-66
2021/06/28 00:53:23;;;;;;;4.03;2.83;;;;;;;21.34;59.41;101361.25;5051057;28;20742;-66
2021/06/28 00:55:48;;;;;;;4.70;2.63;;;;;;;21.10;59.86;101333.19;5049522;28;20566;-66
2021/06/28 00:58:14;;;;;;;5.03;3.03;;;;;;;21.21;58.89;101347.47;5049669;28;20229;-66
2021/06/28 01:00:40;;;;;;;3.20;2.47;;;;;;;21.35;58.75;101366.38;5032828;28;20237;-66
2021/06/28 01:03:05;;;;;;;5.17;2.83;;;;;;;21.17;59.35;101344.06;5049470;28;20231;-66
2021/06/28 01:05:32;;;;;;;6.37;2.80;;;;;;;21.05;59.18;101321.81;5032648;28;20207;-66
2021/06/28 01:07:58;;;;;;;4.03;2.70;;;;;;;21.31;59.26;101365.81;5032320;28;20183;-66
2021/06/28 01:10:24;;;;;;;5.63;3.07;;;;;;;21.32;59.04;101370.19;5049259;28;20176;-66
2021/06/28 01:12:50;;;;;;;3.43;2.60;;;;;;;21.26;59.05;101368.53;5049649;28;20184;-66
2021/06/28 01:15:15;;;;;;;2.80;2.50;;;;;;;21.22;58.97;101365.94;5050939;28;20248;-66
2021/06/28 01:17:41;;;;;;;4.30;2.80;;;;;;;20.98;60.27;101328.63;5049253;28;20172;-66
2021/06/28 01:20:13;;;;;;;6.13;2.93;;;;;;;21.15;60.55;101366.34;5032436;28;20200;-66
2021/06/28 01:22:41;;;;;;;4.97;3.00;;;;;;;20.94;59.88;101355.47;5048865;28;20186;-66
2021/06/28 01:25:11;;;;;;;3.63;2.60;;;;;;;20.99;59.64;101366.03;5016342;28;20187;-65
2021/06/28 01:27:37;;;;;;;3.50;2.80;;;;;;;20.93;59.91;101380.03;5050614;28;20653;-66
2021/06/28 01:30:05;;;;;;;4.03;2.67;;;;;;;20.96;59.77;101376.25;5049166;28;20768;-66
2021/06/28 01:32:30;;;;;;;4.07;2.70;;;;;;;20.84;60.23;101384.97;5048775;28;20216;-66
2021/06/28 01:34:56;;;;;;;3.53;2.30;;;;;;;20.39;60.30;101315.78;5049222;28;20184;-66
2021/06/28 01:37:23;;;;;;;4.13;2.57;;;;;;;20.83;60.35;101386.97;5049300;28;20206;-66
2021/06/28 01:39:50;;;;;;;4.77;2.80;;;;;;;20.81;59.90;101385.91;5050244;28;20199;-66
2021/06/28 01:42:16;;;;;;;4.77;2.67;;;;;;;20.87;60.11;101381.19;5048623;28;20740;-66
2021/06/28 01:44:41;;;;;;;4.07;3.00;;;;;;;20.82;60.26;101381.84;5049158;28;20183;-66
2021/06/28 01:47:06;;;;;;;3.63;2.93;;;;;;;20.91;60.30;101384.59;5050341;28;20184;-66
2021/06/28 01:49:32;;;;;;;4.93;2.93;;;;;;;20.90;60.05;101377.41;5050490;28;20213;-66
2021/06/28 01:51:57;;;;;;;3.50;2.60;;;;;;;20.89;60.21;101378.66;5048568;28;20251;-66
2021/06/28 01:54:23;;;;;;;4.20;2.70;;;;;;;20.92;60.47;101386.13;5032505;28;20181;-66
2021/06/28 01:56:48;;;;;;;3.47;2.70;;;;;;;20.41;61.01;101304.03;5032421;28;20182;-66
2021/06/28 01:59:14;;;;;;;6.13;3.07;;;;;;;20.94;61.17;101380.81;5048972;28;20361;-66
2021/06/28 02:01:39;;;;;;;6.07;3.13;;;;;;;21.01;60.86;101386.84;5050006;28;20647;-66
2021/06/28 02:04:05;;;;;;;5.10;2.90;;;;;;;20.86;60.55;101376.78;5050066;28;20184;-66
2021/06/28 02:06:31;;;;;;;5.50;2.97;;;;;;;20.84;60.50;101368.06;5048798;28;20197;-66
2021/06/28 02:08:56;;;;;;;7.50;3.00;;;;;;;20.94;60.49;101389.28;5048667;28;20187;-66
2021/06/28 02:11:22;;;;;;;3.63;3.00;;;;;;;20.94;60.90;101387.22;5048550;28;20649;-66
2021/06/28 02:13:47;;;;;;;4.90;3.00;;;;;;;20.92;61.13;101392.56;5050193;28;20180;-66
2021/06/28 02:16:13;;;;;;;15.17;3.67;;;;;;;20.86;61.16;101397.28;5048703;28;20193;-66
2021/06/28 02:18:38;;;;;;;9.83;3.53;;;;;;;20.93;60.63;101399.75;5052258;28;20219;-66
2021/06/28 02:21:04;;;;;;;8.37;3.20;;;;;;;20.88;61.21;101400.41;5052036;28;20206;-66
2021/06/28 02:23:34;;;;;;;17.30;3.97;;;;;;;20.84;60.75;101393.41;5052615;28;20261;-66
2021/06/28 02:26:04;;;;;;;6.67;3.13;;;;;;;20.90;60.99;101408.41;5052671;28;20178;-66
2021/06/28 02:28:32;;;;;;;6.33;2.70;;;;;;;20.57;61.37;101379.59;5052636;28;20179;-66
2021/06/28 02:30:58;;;;;;;6.40;2.80;;;;;;;20.65;61.26;101383.56;5035378;28;20191;-66
2021/06/28 02:33:23;;;;;;;7.73;3.03;;;;;;;20.77;61.10;101411.47;5019431;28;20267;-66
2021/06/28 02:35:49;;;;;;;10.07;3.60;;;;;;;20.82;62.01;101410.03;5052382;28;20187;-66
2021/06/28 02:38:15;;;;;;;9.70;3.70;;;;;;;20.83;62.04;101400.31;5052023;28;20676;-66
2021/06/28 02:40:41;;;;;;;7.87;3.40;;;;;;;20.69;62.37;101381.34;5053198;28;20754;-66
2021/06/28 02:43:06;;;;;;;10.80;3.67;;;;;;;20.76;62.56;101409.91;5051897;28;20269;-66
2021/06/28 02:45:32;;;;;;;7.97;3.50;;;;;;;20.53;62.65;101374.13;5053556;28;20302;-66
2021/06/28 02:47:57;;;;;;;7.47;3.40;;;;;;;20.77;62.03;101405.81;5052064;28;20651;-66
2021/06/28 02:50:23;;;;;;;7.30;3.13;;;;;;;20.69;61.81;101409.50;5052890;28;20179;-66
2021/06/28 02:52:48;;;;;;;8.43;3.47;;;;;;;20.42;62.19;101378.78;5052208;28;20671;-66
2021/06/28 02:55:14;;;;;;;13.10;4.20;;;;;;;20.70;62.00;101405.44;5051868;28;20261;-66
2021/06/28 02:57:40;;;;;;;8.80;3.27;;;;;;;20.55;62.41;101393.34;5052021;28;20183;-66
2021/06/28 03:00:08;;;;;;;9.53;3.97;;;;;;;20.24;63.05;101365.63;5035353;28;20197;-66
2021/06/28 03:02:33;;;;;;;7.50;3.40;;;;;;;20.46;63.19;101421.63;5035060;28;20724;-66
2021/06/28 03:04:59;;;;;;;6.23;3.73;;;;;;;20.49;63.32;101409.38;5051725;28;20174;-66
2021/06/28 03:07:24;;;;;;;7.53;2.97;;;;;;;20.43;62.99;101400.81;5052820;28;20171;-66
2021/06/28 03:09:50;;;;;;;5.00;3.33;;;;;;;20.53;62.79;101418.41;5053201;28;20175;-65
2021/06/28 03:12:15;;;;;;;4.90;2.90;;;;;;;20.56;63.06;101420.25;5052361;28;20546;-66
2021/06/28 03:14:41;;;;;;;6.40;3.33;;;;;;;20.53;63.51;101429.69;5052997;28;20220;-66
2021/06/28 03:17:06;;;;;;;5.87;3.33;;;;;;;20.26;63.42;101390.47;5052925;28;20182;-66
2021/06/28 03:19:32;;;;;;;6.83;3.60;;;;;;;20.56;63.56;101435.13;5034515;28;20329;-66
2021/06/28 03:21:57;;;;;;;9.83;3.60;;;;;;;20.67;63.42;101434.56;5052127;28;20174;-66
2021/06/28 03:24:23;;;;;;;11.30;4.17;;;;;;;20.69;63.41;101432.03;5051512;28;20182;-66
2021/06/28 03:26:48;;;;;;;11.37;4.07;;;;;;;20.57;63.83;101419.00;5051562;28;20174;-66
2021/06/28 03:29:14;;;;;;;8.13;3.60;;;;;;;20.74;63.71;101434.97;5017561;28;20179;-66
2021/06/28 03:31:39;;;;;;;4.67;2.87;;;;;;;20.56;63.90;101408.97;5052042;28;20201;-66
2021/06/28 03:34:05;;;;;;;10.17;3.53;;;;;;;20.78;63.18;101434.78;5052338;28;20174;-66
2021/06/28 03:36:30;;;;;;;11.37;3.70;;;;;;;20.90;63.33;101430.94;5051329;28;20183;-66
2021/06/28 03:38:56;;;;;;;8.43;3.83;;;;;;;20.93;63.14;101425.09;5050892;28;20178;-66
2021/06/28 03:41:21;;;;;;;11.93;3.27;;;;;;;20.70;62.45;101385.72;5050781;28;20215;-66
2021/06/28 03:43:47;;;;;;;4.00;3.13;;;;;;;20.98;63.03;101424.44;5031020;28;20189;-66
2021/06/28 03:46:12;;;;;;;8.53;3.63;;;;;;;20.86;62.86;101414.19;5014624;28;20181;-66
2021/06/28 03:48:38;;;;;;;7.60;3.80;;;;;;;20.84;62.75;101401.84;5031310;28;20218;-65
2021/06/28 03:51:04;;;;;;;6.13;3.33;;;;;;;20.90;62.88;101423.28;5030465;28;20175;-66
2021/06/28 03:53:29;;;;;;;6.77;3.73;;;;;;;20.88;62.96;101420.13;5030944;28;20178;-66
2021/06/28 03:55:55;;;;;;;6.03;3.37;;;;;;;21.04;62.08;101433.75;5046808;28;20194;-66
2021/06/28 03:58:20;;;;;;;6.00;3.50;;;;;;;21.17;61.82;101439.91;5051011;28;20183;-66
2021/06/28 04:00:46;;;;;;;8.10;3.50;;;;;;;21.29;61.66;101457.78;5051579;28;20203;-66
2021/06/28 04:03:12;;;;;;;9.63;4.17;;;;;;;21.22;61.18;101444.84;5050695;28;20197;-66
2021/06/28 04:05:38;;;;;;;7.33;3.57;;;;;;;21.39;61.97;101460.00;5034283;28;20191;-66
2021/06/28 04:08:03;;;;;;;5.77;3.57;;;;;;;21.48;61.71;101457.09;5033531;28;20206;-66
2021/06/28 04:10:29;;;;;;;6.17;3.73;;;;;;;21.31;60.83;101424.25;5051505;28;20209;-66
2021/06/28 04:12:55;;;;;;;7.87;3.67;;;;;;;21.18;64.52;101404.81;5033992;28;20705;-72
2021/06/28 04:15:20;;;;;;;9.53;4.50;;;;;;;21.77;61.83;101437.34;5050499;28;20180;-72
2021/06/28 04:17:53;;;;;;;6.63;3.23;;;;;;;21.49;59.56;101412.75;5050425;28;20242;-72
2021/06/28 04:20:21;;;;;;;5.10;3.00;;;;;;;21.44;59.98;101424.72;5017387;28;20207;-72
2021/06/28 04:22:46;;;;;;;6.77;3.30;;;;;;;21.70;60.34;101449.00;5029910;28;20275;-74
2021/06/28 04:25:14;;;;;;;8.10;3.47;;;;;;;21.75;60.89;101467.31;5031357;28;20199;-74
2021/06/28 04:27:39;;;;;;;4.77;3.40;;;;;;;21.66;60.50;101473.03;5030519;28;20177;-75
2021/06/28 04:30:06;;;;;;;6.20;3.37;;;;;;;21.48;60.67;101436.56;5037380;28;20197;-75
2021/06/28 04:32:34;;;;;;;10.53;2.93;;;;;;;21.71;60.30;101466.72;5050022;28;20197;-74
2021/06/28 04:35:00;;;;;;;4.33;2.93;;;;;;;21.60;60.53;101449.59;5049772;28;20186;-75
2021/06/28 04:37:26;;;;;;;6.70;3.00;;;;;;;21.65;60.39;101437.63;5032769;28;20605;-74
2021/06/28 04:39:52;;;;;;;6.80;3.10;;;;;;;21.98;60.70;101475.63;5014393;28;20272;-74
2021/06/28 04:42:17;;;;;;;5.93;3.23;;;;;;;21.88;61.15;101473.41;5022657;28;20667;-74
2021/06/28 04:44:43;;;;;;;8.20;3.17;;;;;;;22.07;60.53;101472.69;5045973;28;20183;-74
2021/06/28 04:47:08;;;;;;;5.63;3.03;;;;;;;21.88;60.40;101439.53;5040234;28;20221;-74
2021/06/28 04:49:34;;;;;;;8.17;3.47;;;;;;;22.20;60.50;101466.69;5063718;28;20290;-69
2021/06/28 04:51:59;;;;;;;6.90;3.30;;;;;;;22.21;60.77;101474.66;5038486;28;20707;-68
2021/06/28 04:54:25;;;;;;;14.70;7.63;;;;;;;22.00;60.81;101447.69;5046893;28;20335;-73
2021/06/28 04:56:50;;;;;;;5.57;3.27;;;;;;;22.20;59.77;101473.13;5006579;28;20184;-72
2021/06/28 04:59:17;;;;;;;8.93;3.53;;;;;;;22.33;60.25;101482.03;5030894;28;20231;-73
2021/06/28 05:01:43;;;;;;;8.33;3.43;;;;;;;22.49;58.34;101489.19;5048163;28;20227;-70
2021/06/28 05:04:08;;;;;;;5.30;3.23;;;;;;;22.64;57.96;101487.09;5047336;28;20194;-68
2021/06/28 05:06:34;;;;;;;6.47;3.50;;;;;;;22.44;58.84;101462.44;5009193;28;20567;-72
2021/06/28 05:08:59;;;;;;;10.33;3.63;;;;;;;22.75;58.96;101490.81;5052665;28;20620;-70
2021/06/28 05:11:25;;;;;;;4.03;2.93;;;;;;;22.70;59.13;101459.66;5030146;28;20169;-71
2021/06/28 05:13:50;;;;;;;5.80;3.37;;;;;;;23.05;58.36;101505.56;5029900;28;20184;-71
2021/06/28 05:16:16;;;;;;;7.50;3.77;;;;;;;23.18;58.49;101500.34;5035694;28;20199;-70
2021/06/28 05:18:41;;;;;;;5.37;3.47;;;;;;;22.19;57.03;101349.38;5053409;28;20272;-70
2021/06/28 05:21:07;;;;;;;7.40;3.70;;;;;;;23.15;57.60;101506.94;5051956;28;20192;-68
2021/06/28 05:23:32;;;;;;;5.40;3.97;;;;;;;23.36;57.03;101514.91;5061120;28;20179;-68
2021/06/28 05:25:58;;;;;;;10.07;4.07;;;;;;;23.54;56.90;101508.91;5035266;28;20652;-68
2021/06/28 05:28:23;;;;;;;9.40;3.97;;;;;;;23.69;56.26;101491.81;5057044;28;20609;-68
2021/06/28 05:30:49;;;;;;;5.77;3.70;;;;;;;23.58;55.78;101491.69;5052669;28;20266;-68
2021/06/28 05:33:15;;;;;;;7.43;3.80;;;;;;;23.67;54.89;101497.97;5022680;28;20187;-71
2021/06/28 05:35:40;;;;;;;12.20;4.27;;;;;;;23.93;55.96;101509.25;5060679;28;20274;-68
2021/06/28 05:38:06;;;;;;;10.43;3.80;;;;;;;23.91;55.00;101480.69;5056741;28;20180;-70
2021/06/28 05:40:31;;;;;;;5.97;3.80;;;;;;;24.30;55.45;101515.69;5056845;28;20208;-69
2021/06/28 05:43:16;;;;;;;51.53;7.97;;;;;;;24.50;55.69;101513.50;5113010;27;21103;-72
2021/06/28 05:45:42;;;;;;;14.20;4.60;;;;;;;24.15;54.33;101438.63;5116669;27;20201;-71
2021/06/28 05:48:07;;;;;;;8.23;4.60;;;;;;;24.71;53.81;101512.06;5080076;28;20197;-71
2021/06/28 05:50:33;;;;;;;6.53;4.50;;;;;;;24.63;54.82;101485.50;5118429;28;20326;-71
2021/06/28 05:52:59;;;;;;;9.23;4.30;;;;;;;24.99;54.09;101520.69;5094185;28;20178;-71
2021/06/28 05:55:25;;;;;;;6.97;4.57;;;;;;;24.56;54.67;101480.28;5058477;28;20636;-72
2021/06/28 05:57:51;;;;;;;9.70;4.67;;;;;;;24.94;56.27;101510.09;5105319;28;20201;-72
2021/06/28 06:00:17;;;;;;;12.57;4.80;;;;;;;25.09;57.68;101530.50;5095466;28;20769;-74
2021/06/28 06:02:42;;;;;;;11.73;4.97;;;;;;;24.89;57.85;101477.63;5108885;28;20573;-72
2021/06/28 06:05:08;;;;;;;19.53;5.50;;;;;;;25.42;57.53;101522.88;5088068;28;20250;-71
2021/06/28 06:07:35;;;;;;;11.17;5.13;;;;;;;25.71;55.94;101513.88;5112564;28;20641;-71
2021/06/28 06:10:02;;;;;;;12.50;4.53;;;;;;;26.18;55.09;101532.72;5118691;28;20177;-71
2021/06/28 06:12:27;;;;;;;7.70;5.13;;;;;;;26.43;54.99;101528.78;5110049;28;20170;-71
2021/06/28 06:14:53;;;;;;;10.17;4.80;;;;;;;26.69;53.99;101531.31;5096184;28;20596;-71
2021/06/28 06:17:18;;;;;;;6.57;4.30;;;;;;;26.89;54.29;101537.44;5113215;27;20182;-70
2021/06/28 06:19:44;;;;;;;7.43;4.97;;;;;;;26.99;53.54;101524.47;5119531;28;20171;-69
2021/06/28 06:22:10;;;;;;;10.30;5.20;;;;;;;27.05;53.36;101538.66;5090157;28;20317;-69
2021/06/28 06:24:35;;;;;;;8.03;4.60;;;;;;;27.24;52.86;101531.06;5109266;28;20190;-67
2021/06/28 06:27:01;;;;;;;8.70;4.77;;;;;;;27.19;52.13;101537.56;5111178;28;20178;-68
2021/06/28 06:29:27;;;;;;;7.83;5.37;;;;;;;26.61;52.98;101501.88;5111851;27;20538;-69
2021/06/28 06:31:52;;;;;;;16.57;5.27;;;;;;;26.79;53.30;101493.53;5110580;28;20185;-67
2021/06/28 06:34:18;;;;;;;11.80;6.13;;;;;;;27.05;53.77;101535.78;5099871;28;20182;-68
2021/06/28 06:36:43;;;;;;;9.83;5.80;;;;;;;26.98;54.30;101544.91;5118344;27;20186;-66
2021/06/28 06:39:09;;;;;;;5.67;5.03;;;;;;;27.07;53.51;101542.50;5108832;28;20217;-67
2021/06/28 06:41:34;;;;;;;7.43;5.00;;;;;;;26.99;53.57;101538.69;5109466;28;20253;-73
2021/06/28 06:44:00;;;;;;;7.20;5.43;;;;;;;26.50;54.51;101548.13;5115801;28;20188;-74
2021/06/28 06:46:25;;;;;;;8.60;5.90;;;;;;;26.54;55.41;101545.03;5089727;28;20190;-73
2021/06/28 06:48:51;;;;;;;9.70;5.17;;;;;;;26.76;54.64;101551.44;5115202;28;20250;-73
2021/06/28 06:51:17;;;;;;;10.77;5.17;;;;;;;26.92;54.68;101544.91;5108116;28;20655;-68
2021/06/28 06:53:43;;;;;;;9.90;5.10;;;;;;;27.20;53.63;101550.50;5097449;28;20262;-67
2021/06/28 06:56:09;;;;;;;9.83;4.97;;;;;;;27.20;52.96;101527.72;5095951;28;20190;-70
2021/06/28 06:58:34;;;;;;;8.43;4.90;;;;;;;26.95;52.07;101500.41;5090221;28;20651;-71
2021/06/28 07:01:00;;;;;;;5.50;5.00;;;;;;;27.21;52.01;101543.50;5083213;28;20319;-70
2021/06/28 07:03:25;;;;;;;7.53;5.03;;;;;;;27.09;53.17;101547.69;5077112;28;20186;-71
2021/06/28 07:05:51;;;;;;;10.57;4.97;;;;;;;27.20;53.37;101548.44;5095333;28;20563;-72
2021/06/28 07:08:16;;;;;;;7.73;4.97;;;;;;;26.87;53.93;101507.97;5103416;28;20678;-72
2021/06/28 07:10:43;;;;;;;14.73;5.63;;;;;;;26.99;55.95;101554.97;5101047;28;20224;-69
2021/06/28 07:13:08;;;;;;;15.80;5.30;;;;;;;27.28;54.45;101551.50;5103449;28;20536;-70
2021/06/28 07:15:34;;;;;;;15.40;5.80;;;;;;;27.08;53.89;101498.53;5081728;28;20260;-72
2021/06/28 07:18:00;;;;;;;8.23;4.63;;;;;;;27.48;53.81;101548.25;5099608;28;20187;-71
2021/06/28 07:20:25;;;;;;;10.60;5.43;;;;;;;27.33;53.78;101536.47;5098089;28;20271;-69
2021/06/28 07:22:52;;;;;;;16.67;5.00;;;;;;;27.50;53.04;101509.44;5100107;28;20699;-72
2021/06/28 07:25:18;;;;;;;18.37;5.87;;;;;;;28.01;52.55;101542.69;5096319;28;20190;-69
2021/06/28 07:27:44;;;;;;;10.27;4.83;;;;;;;27.99;51.21;101505.41;5097650;28;20179;-68
2021/06/28 07:30:11;;;;;;;9.23;4.93;;;;;;;28.41;50.56;101553.19;5081011;28;20630;-70
2021/06/28 07:32:37;;;;;;;10.60;4.80;;;;;;;28.29;49.67;101508.97;5078414;28;20202;-69
2021/06/28 07:35:04;;;;;;;11.20;4.67;;;;;;;28.62;49.23;101545.69;5085788;28;20178;-70
2021/06/28 07:37:29;;;;;;;8.80;4.73;;;;;;;28.56;48.67;101549.94;5067460;28;20205;-69
2021/06/28 07:39:55;;;;;;;8.05;5.07;;;;;;;28.54;48.95;101549.69;5091885;28;20687;-68
2021/06/28 07:42:21;;;;;;;7.63;4.95;;;;;;;28.11;49.87;101548.81;5091831;28;20301;-69
2021/06/28 07:44:46;;;;;;;7.45;4.05;;;;;;;28.24;49.82;101528.97;5093569;28;20652;-68
2021/06/28 07:47:11;;;;;;;8.93;4.88;;;;;;;28.37;49.88;101549.06;5097367;28;20649;-68
2021/06/28 07:49:37;;;;;;;7.93;4.37;;;;;;;28.04;51.63;101523.75;5079479;28;20274;-66
2021/06/28 07:52:03;;;;;;;7.10;4.47;;;;;;;28.44;49.66;101548.50;5099294;28;20203;-65
2021/06/28 07:54:29;;;;;;;6.95;4.60;;;;;;;28.42;50.64;101539.72;5094845;28;20423;-66
2021/06/28 07:56:55;;;;;;;7.33;4.90;;;;;;;28.26;49.32;101498.63;5090748;28;20191;-65
2021/06/28 07:59:20;;;;;;;9.70;4.80;;;;;;;28.58;48.56;101550.94;5076474;28;20255;-65
2021/06/28 08:01:46;;;;;;;6.90;4.27;;;;;;;28.42;48.83;101517.69;5062992;28;20241;-66
2021/06/28 08:04:11;;;;;;;7.18;4.38;;;;;;;28.74;48.35;101552.03;5058962;28;20584;-66
2021/06/28 08:06:37;;;;;;;5.95;4.20;;;;;;;28.72;47.62;101546.88;5096446;28;20569;-64
2021/06/28 08:09:03;;;;;;;7.47;4.75;;;;;;;28.73;47.88;101550.50;5103597;28;20179;-66
2021/06/28 08:11:29;;;;;;;7.07;4.97;;;;;;;28.83;47.33;101551.69;5079735;28;21206;-67
2021/06/28 08:13:55;;;;;;;7.57;4.43;;;;;;;28.94;47.04;101552.31;5091308;28;20179;-67
2021/06/28 08:16:21;;;;;;;6.45;4.53;;;;;;;28.94;47.21;101549.47;5099216;28;20568;-67
2021/06/28 08:18:48;;;;;;;6.40;4.60;;;;;;;29.07;47.11;101548.81;5101132;28;20596;-66
2021/06/28 08:21:14;;;;;;;7.45;4.40;;;;;;;28.75;47.01;101493.69;5091412;28;20182;-65
2021/06/28 08:23:39;;;;;;;5.05;4.47;;;;;;;28.90;46.33;101520.47;5095140;28;20679;-68
2021/06/28 08:26:05;;;;;;;5.22;3.97;;;;;;;29.06;46.01;101538.69;5060830;28;20562;-68
2021/06/28 08:28:31;;;;;;;6.28;3.90;;;;;;;29.02;44.76;101519.03;5092092;28;20205;-68
2021/06/28 08:30:56;;;;;;;7.68;4.50;;;;;;;29.29;44.47;101548.50;5089711;28;20218;-68
2021/06/28 08:33:22;;;;;;;4.50;4.00;;;;;;;29.09;45.25;101509.06;5096582;28;20178;-68
2021/06/28 08:35:47;;;;;;;6.03;4.25;;;;;;;29.36;44.45;101542.94;5080295;28;20217;-69
2021/06/28 08:38:13;;;;;;;6.32;4.22;;;;;;;29.14;43.86;101506.16;5095712;28;20183;-68
2021/06/28 08:40:39;;;;;;;6.28;4.38;;;;;;;29.54;44.85;101550.72;5073544;28;20575;-69
2021/06/28 08:43:05;;;;;;;6.00;4.35;;;;;;;29.60;44.47;101547.78;5078605;28;20250;-69
2021/06/28 08:45:34;;;;;;;8.70;3.80;;;;;;;29.69;43.01;101561.69;5092851;28;20551;-69
2021/06/28 08:48:00;;;;;;;5.25;3.95;;;;;;;29.71;43.90;101550.47;5095448;28;20183;-69
2021/06/28 08:50:25;;;;;;;5.55;3.60;;;;;;;29.64;42.64;101502.56;5083844;28;20703;-69
2021/06/28 08:52:52;;;;;;;5.20;4.05;;;;;;;29.94;42.11;101558.13;5073323;28;20240;-69
2021/06/28 08:55:17;;;;;;;4.45;3.85;;;;;;;29.86;41.46;101536.47;5076689;28;20193;-69
2021/06/28 08:57:43;;;;;;;6.43;3.88;;;;;;;30.06;42.27;101553.78;5059151;28;20183;-70
2021/06/28 09:00:10;;;;;;;4.00;3.58;;;;;;;30.08;43.33;101545.41;5098492;28;20187;-70
2021/06/28 09:02:35;;;;;;;6.13;4.15;;;;;;;30.24;42.82;101549.34;5079778;28;21022;-69
2021/06/28 09:05:04;;;;;;;5.65;3.75;;;;;;;30.35;42.63;101554.84;5099795;28;20214;-69
2021/06/28 09:07:30;;;;;;;4.85;3.83;;;;;;;30.32;42.16;101536.69;5091066;28;20940;-69
2021/06/28 09:09:55;;;;;;;4.95;3.90;;;;;;;30.48;42.93;101549.13;5078293;28;20189;-69
2021/06/28 09:12:21;;;;;;;6.05;4.10;;;;;;;30.55;42.75;101549.25;5082160;28;20190;-69
2021/06/28 09:14:59;;;;;;;4.95;3.65;;;;;;;30.18;42.20;101472.22;5076516;28;20210;-69
2021/06/28 09:17:36;;;;;;;5.65;3.80;;;;;;;30.75;41.44;101550.69;5077870;28;20182;-68
2021/06/28 09:20:18;;;;;;;5.65;3.70;;;;;;;30.72;41.00;101543.22;5102237;28;20280;-68
2021/06/28 09:22:44;;;;;;;4.88;3.95;;;;;;;30.74;41.09;101549.16;5097434;28;20211;-68
2021/06/28 09:25:28;;;;;;;8.18;4.50;;;;;;;30.75;40.62;101545.75;5088483;28;20615;-67
2021/06/28 09:27:53;;;;;;;5.25;4.00;;;;;;;30.43;40.37;101482.13;5096592;28;20170;-69
2021/06/28 09:30:20;;;;;;;8.27;4.05;;;;;;;30.85;40.05;101526.81;5077833;28;20202;-69
2021/06/28 09:32:55;;;;;;;3.47;3.17;;;;;;;30.78;39.11;101503.81;5077064;28;20608;-69
2021/06/28 09:35:34;;;;;;;5.32;3.67;;;;;;;30.68;39.09;101471.25;5079467;28;20234;-68
2021/06/28 09:38:05;;;;;;;9.43;3.85;;;;;;;31.21;38.72;101547.13;5084500;28;20216;-68
2021/06/28 09:40:30;;;;;;;7.15;4.10;;;;;;;31.22;38.04;101542.94;5097432;28;20930;-67
2021/06/28 09:42:56;;;;;;;4.88;3.40;;;;;;;31.10;38.29;101521.56;5086645;28;20264;-68
2021/06/28 09:45:22;;;;;;;4.22;3.53;;;;;;;30.93;37.68;101495.41;5077483;28;20224;-68
2021/06/28 09:47:49;;;;;;;5.22;3.80;;;;;;;31.11;37.56;101500.22;5082164;28;20175;-68
2021/06/28 09:50:19;;;;;;;4.47;3.40;;;;;;;31.07;37.59;101486.22;5081849;28;20274;-68
2021/06/28 09:52:47;;;;;;;4.80;3.40;;;;;;;31.09;37.83;101480.72;5078979;28;20273;-69
2021/06/28 09:55:19;;;;;;;4.45;3.30;;;;;;;31.46;37.53;101542.63;5080653;28;20212;-70
2021/06/28 09:58:12;;;;;;;4.60;3.38;;;;;;;31.42;36.98;101539.38;5094167;28;20420;-68
2021/06/28 10:01:02;;;;;;;4.32;3.03;;;;;;;31.44;37.53;101548.94;5095462;28;20197;-69
2021/06/28 10:03:39;;;;;;;4.70;3.00;;;;;;;31.50;36.39;101545.94;5091450;28;20181;-69
2021/06/28 10:08:35;;;;;;;4.57;2.88;;;;;;;31.67;36.23;101526.22;5101542;28;20597;-67
2021/06/28 10:11:16;;;;;;;5.72;3.20;;;;;;;31.66;34.94;101534.06;5074657;28;20178;-68
2021/06/28 10:13:42;;;;;;;4.55;3.42;;;;;;;31.51;34.61;101485.22;5095445;28;20170;-66
2021/06/28 10:16:08;;;;;;;4.30;2.88;;;;;;;31.87;35.69;101532.00;5074494;28;20183;-68
2021/06/28 10:18:34;;;;;;;4.72;2.80;;;;;;;31.96;36.01;101531.53;5084490;28;20655;-67
2021/06/28 10:20:59;;;;;;;4.97;2.90;;;;;;;32.03;35.70;101530.81;5088681;28;20617;-67
2021/06/28 10:23:25;;;;;;;3.72;3.15;;;;;;;32.15;35.14;101523.44;5091177;28;20714;-66
2021/06/28 10:25:50;;;;;;;4.40;2.95;;;;;;;32.28;33.34;101520.50;5090880;28;20182;-66
2021/06/28 10:28:16;;;;;;;3.15;2.72;;;;;;;32.11;33.33;101468.56;5092341;28;20383;-70
2021/06/28 10:30:41;;;;;;;5.40;2.72;;;;;;;32.30;33.59;101517.84;5099519;28;20239;-69
2021/06/28 10:33:09;;;;;;;4.47;2.72;;;;;;;32.40;33.08;101512.38;5097871;28;20182;-70
2021/06/28 10:35:37;;;;;;;3.95;2.80;;;;;;;32.23;31.51;101469.00;5099664;28;20186;-69
2021/06/28 10:38:11;;;;;;;6.30;4.20;;;;;;;32.26;31.33;101493.72;5093594;28;20203;-69
2021/06/28 10:40:48;;;;;;;3.35;2.65;;;;;;;32.18;31.30;101475.66;5102371;28;20565;-69
2021/06/28 10:43:34;;;;;;;3.95;3.03;;;;;;;32.34;31.95;101472.34;5055857;28;20241;-69
2021/06/28 10:46:00;;;;;;;3.70;2.35;;;;;;;32.48;29.81;101482.38;5102112;28;20233;-69
2021/06/28 10:48:28;;;;;;;3.13;2.30;;;;;;;32.26;28.65;101447.84;5075205;28;20186;-69
2021/06/28 10:51:05;;;;;;;3.63;2.10;;;;;;;32.29;30.33;101463.94;5090231;28;20182;-69
2021/06/28 10:53:33;;;;;;;3.38;2.38;;;;;;;32.62;28.36;101497.38;5085357;28;20655;-69
2021/06/28 10:56:28;;;;;;;3.75;2.30;;;;;;;32.68;29.36;101490.16;5097652;28;20191;-69
2021/06/28 10:59:07;;;;;;;4.28;2.20;;;;;;;32.76;27.79;101487.31;5093416;28;20190;-69
2021/06/28 11:01:47;;;;;;;7.03;2.97;;;;;;;32.74;36.65;101485.00;5085208;28;20215;-65
2021/06/28 11:04:22;;;;;;;8.50;3.85;;;;;;;32.78;35.17;101476.06;5077101;28;20732;-69
2021/06/28 11:07:02;;;;;;;11.65;3.30;;;;;;;32.68;35.60;101466.41;5078327;28;20550;-66
2021/06/28 11:09:56;;;;;;;16.90;3.50;;;;;;;32.68;35.79;101406.13;5077594;28;20551;-80
2021/06/28 11:12:23;;;;;;;3.47;2.80;;;;;;;33.30;34.98;101438.13;5057665;28;20194;-68
2021/06/28 11:14:50;;;;;;;7.65;3.67;;;;;;;33.34;34.45;101455.75;5055547;28;20179;-63
2021/06/28 11:17:20;;;;;;;5.13;2.70;;;;;;;33.65;31.88;101455.22;5065006;28;20183;-75
2021/06/28 11:21:40;;;;;;;6.10;2.42;;;;;;;33.67;27.20;101449.66;5099252;27;20549;-61
2021/06/28 11:24:06;;;;;;;3.88;2.50;;;;;;;34.09;27.71;101447.19;5074528;28;20204;-61
2021/06/28 11:26:33;;;;;;;3.30;2.72;;;;;;;34.13;25.46;101404.41;5100575;28;20198;-61
2021/06/28 11:28:58;;;;;;;4.75;2.30;;;;;;;34.61;24.80;101444.16;5089617;28;20616;-62